sensor_id;sensor_type;location;lat;lon;timestamp;P1;durP1;ratioP1;P2;durP2;ratioP2
8556;SDS011;4316;53.840;10.762;2023-11-21T00:00:15;10.67;;;6.83;;
8556;SDS011;4316;53.840;10.762;2023-11-21T00:02:41;12.47;;;5.53;;
8556;SDS011;4316;53.840;10.762;2023-11-21T00:05:08;8.17;;;6.13;;
8556;SDS011;4316;53.840;10.762;2023-11-21T00:07:35;6.47;;;5.63;;
8556;SDS011;4316;53.840;10.762;2023-11-21T00:10:04;7.17;;;5.60;;
8556;SDS011;4316;53.840;10.762;2023-11-21T00:12:36;6.83;;;5.53;;
8556;SDS011;4316;53.840;10.762;2023-11-21T00:15:03;9.57;;;5.77;;
8556;SDS011;4316;53.840;10.762;2023-11-21T00:17:47;6.63;;;5.10;;
8556;SDS011;4316;53.840;10.762;2023-11-21T00:20:13;5.47;;;4.83;;
8556;SDS011;4316;53.840;10.762;2023-11-21T00:22:38;5.77;;;5.13;;
8556;SDS011;4316;53.840;10.762;2023-11-21T00:25:05;6.30;;;5.40;;
8556;SDS011;4316;53.840;10.762;2023-11-21T00:27:33;6.47;;;5.87;;
8556;SDS011;4316;53.840;10.762;2023-11-21T00:30:00;9.07;;;5.90;;
8556;SDS011;4316;53.840;10.762;2023-11-21T00:32:25;7.57;;;5.83;;
8556;SDS011;4316;53.840;10.762;2023-11-21T00:34:51;8.30;;;6.47;;
8556;SDS011;4316;53.840;10.762;2023-11-21T00:37:17;6.80;;;5.87;;
8556;SDS011;4316;53.840;10.762;2023-11-21T00:39:42;7.97;;;6.33;;
8556;SDS011;4316;53.840;10.762;2023-11-21T00:42:08;7.80;;;5.70;;
8556;SDS011;4316;53.840;10.762;2023-11-21T00:44:37;7.37;;;5.60;;
8556;SDS011;4316;53.840;10.762;2023-11-21T00:47:04;9.27;;;6.43;;
8556;SDS011;4316;53.840;10.762;2023-11-21T00:49:30;7.13;;;5.67;;
8556;SDS011;4316;53.840;10.762;2023-11-21T00:51:55;6.13;;;5.53;;
8556;SDS011;4316;53.840;10.762;2023-11-21T00:54:23;6.53;;;5.77;;
8556;SDS011;4316;53.840;10.762;2023-11-21T00:56:48;6.37;;;5.30;;
8556;SDS011;4316;53.840;10.762;2023-11-21T00:59:14;10.10;;;6.13;;
8556;SDS011;4316;53.840;10.762;2023-11-21T01:01:41;5.37;;;4.83;;
8556;SDS011;4316;53.840;10.762;2023-11-21T01:04:06;9.93;;;6.10;;
8556;SDS011;4316;53.840;10.762;2023-11-21T01:06:33;6.47;;;5.10;;
8556;SDS011;4316;53.840;10.762;2023-11-21T01:08:58;8.07;;;6.10;;
8556;SDS011;4316;53.840;10.762;2023-11-21T01:11:24;7.00;;;5.33;;
8556;SDS011;4316;53.840;10.762;2023-11-21T01:13:50;6.87;;;5.50;;
8556;SDS011;4316;53.840;10.762;2023-11-21T01:16:15;7.50;;;5.87;;
8556;SDS011;4316;53.840;10.762;2023-11-21T01:18:41;8.67;;;4.80;;
8556;SDS011;4316;53.840;10.762;2023-11-21T01:21:07;8.13;;;4.53;;
8556;SDS011;4316;53.840;10.762;2023-11-21T01:23:34;6.00;;;5.10;;
8556;SDS011;4316;53.840;10.762;2023-11-21T01:26:00;5.90;;;5.40;;
8556;SDS011;4316;53.840;10.762;2023-11-21T01:28:25;7.23;;;5.20;;
8556;SDS011;4316;53.840;10.762;2023-11-21T01:30:51;6.60;;;5.27;;
8556;SDS011;4316;53.840;10.762;2023-11-21T01:33:18;5.53;;;4.67;;
8556;SDS011;4316;53.840;10.762;2023-11-21T01:35:45;7.07;;;5.20;;
8556;SDS011;4316;53.840;10.762;2023-11-21T01:38:11;8.33;;;4.67;;
8556;SDS011;4316;53.840;10.762;2023-11-21T01:40:37;5.17;;;4.40;;
8556;SDS011;4316;53.840;10.762;2023-11-21T01:43:03;6.23;;;5.10;;
8556;SDS011;4316;53.840;10.762;2023-11-21T01:45:29;6.77;;;4.67;;
8556;SDS011;4316;53.840;10.762;2023-11-21T01:47:58;9.83;;;5.20;;
8556;SDS011;4316;53.840;10.762;2023-11-21T01:50:25;6.03;;;4.80;;
8556;SDS011;4316;53.840;10.762;2023-11-21T01:52:52;9.30;;;4.87;;
8556;SDS011;4316;53.840;10.762;2023-11-21T01:55:19;5.30;;;4.77;;
8556;SDS011;4316;53.840;10.762;2023-11-21T01:57:45;5.33;;;4.37;;
8556;SDS011;4316;53.840;10.762;2023-11-21T02:00:11;6.93;;;5.13;;
8556;SDS011;4316;53.840;10.762;2023-11-21T02:02:45;5.80;;;4.50;;
8556;SDS011;4316;53.840;10.762;2023-11-21T02:05:11;7.50;;;4.67;;
8556;SDS011;4316;53.840;10.762;2023-11-21T02:07:39;7.53;;;4.63;;
8556;SDS011;4316;53.840;10.762;2023-11-21T02:10:07;4.80;;;4.30;;
8556;SDS011;4316;53.840;10.762;2023-11-21T02:12:33;9.77;;;4.40;;
8556;SDS011;4316;53.840;10.762;2023-11-21T02:15:00;5.67;;;4.53;;
8556;SDS011;4316;53.840;10.762;2023-11-21T02:17:30;5.53;;;4.23;;
8556;SDS011;4316;53.840;10.762;2023-11-21T02:19:57;5.67;;;4.67;;
8556;SDS011;4316;53.840;10.762;2023-11-21T02:22:24;5.47;;;3.87;;
8556;SDS011;4316;53.840;10.762;2023-11-21T02:24:55;4.47;;;3.97;;
8556;SDS011;4316;53.840;10.762;2023-11-21T02:27:23;4.43;;;4.03;;
8556;SDS011;4316;53.840;10.762;2023-11-21T02:29:49;6.07;;;4.37;;
8556;SDS011;4316;53.840;10.762;2023-11-21T02:32:15;6.27;;;4.07;;
8556;SDS011;4316;53.840;10.762;2023-11-21T02:34:44;4.27;;;3.87;;
8556;SDS011;4316;53.840;10.762;2023-11-21T02:37:09;6.47;;;4.20;;
8556;SDS011;4316;53.840;10.762;2023-11-21T02:39:35;5.03;;;3.80;;
8556;SDS011;4316;53.840;10.762;2023-11-21T02:42:00;5.13;;;3.80;;
8556;SDS011;4316;53.840;10.762;2023-11-21T02:44:26;11.07;;;4.13;;
8556;SDS011;4316;53.840;10.762;2023-11-21T02:46:52;5.07;;;4.33;;
8556;SDS011;4316;53.840;10.762;2023-11-21T02:49:17;5.90;;;4.10;;
8556;SDS011;4316;53.840;10.762;2023-11-21T02:51:43;6.90;;;4.03;;
8556;SDS011;4316;53.840;10.762;2023-11-21T02:54:08;5.70;;;4.37;;
8556;SDS011;4316;53.840;10.762;2023-11-21T02:56:34;4.90;;;4.40;;
8556;SDS011;4316;53.840;10.762;2023-11-21T02:59:00;4.67;;;4.10;;
8556;SDS011;4316;53.840;10.762;2023-11-21T03:01:25;6.30;;;4.53;;
8556;SDS011;4316;53.840;10.762;2023-11-21T03:03:52;5.03;;;4.00;;
8556;SDS011;4316;53.840;10.762;2023-11-21T03:06:18;6.67;;;4.50;;
8556;SDS011;4316;53.840;10.762;2023-11-21T03:08:45;8.87;;;4.83;;
8556;SDS011;4316;53.840;10.762;2023-11-21T03:11:11;7.33;;;4.87;;
8556;SDS011;4316;53.840;10.762;2023-11-21T03:13:38;5.27;;;4.50;;
8556;SDS011;4316;53.840;10.762;2023-11-21T03:16:04;5.47;;;4.30;;
8556;SDS011;4316;53.840;10.762;2023-11-21T03:18:31;6.50;;;4.77;;
8556;SDS011;4316;53.840;10.762;2023-11-21T03:20:56;7.30;;;4.60;;
8556;SDS011;4316;53.840;10.762;2023-11-21T03:23:22;10.13;;;5.00;;
8556;SDS011;4316;53.840;10.762;2023-11-21T03:25:48;7.77;;;4.80;;
8556;SDS011;4316;53.840;10.762;2023-11-21T03:28:14;6.70;;;4.93;;
8556;SDS011;4316;53.840;10.762;2023-11-21T03:30:39;5.23;;;4.43;;
8556;SDS011;4316;53.840;10.762;2023-11-21T03:33:05;7.67;;;5.00;;
8556;SDS011;4316;53.840;10.762;2023-11-21T03:35:32;6.50;;;4.63;;
8556;SDS011;4316;53.840;10.762;2023-11-21T03:37:58;5.53;;;4.73;;
8556;SDS011;4316;53.840;10.762;2023-11-21T03:40:24;6.03;;;4.57;;
8556;SDS011;4316;53.840;10.762;2023-11-21T03:42:49;8.07;;;5.00;;
8556;SDS011;4316;53.840;10.762;2023-11-21T03:45:15;8.53;;;5.03;;
8556;SDS011;4316;53.840;10.762;2023-11-21T03:47:41;6.17;;;5.00;;
8556;SDS011;4316;53.840;10.762;2023-11-21T03:50:07;8.50;;;4.83;;
8556;SDS011;4316;53.840;10.762;2023-11-21T03:52:35;9.83;;;4.90;;
8556;SDS011;4316;53.840;10.762;2023-11-21T03:55:01;6.27;;;5.30;;
8556;SDS011;4316;53.840;10.762;2023-11-21T03:57:27;8.93;;;5.60;;
8556;SDS011;4316;53.840;10.762;2023-11-21T03:59:53;7.40;;;4.90;;
8556;SDS011;4316;53.840;10.762;2023-11-21T04:02:19;6.47;;;5.27;;
8556;SDS011;4316;53.840;10.762;2023-11-21T04:04:44;13.33;;;5.07;;
8556;SDS011;4316;53.840;10.762;2023-11-21T04:07:10;5.67;;;5.00;;
8556;SDS011;4316;53.840;10.762;2023-11-21T04:09:36;6.17;;;4.97;;
8556;SDS011;4316;53.840;10.762;2023-11-21T04:12:02;13.07;;;5.20;;
8556;SDS011;4316;53.840;10.762;2023-11-21T04:14:27;7.70;;;5.03;;
8556;SDS011;4316;53.840;10.762;2023-11-21T04:16:54;6.50;;;4.67;;
8556;SDS011;4316;53.840;10.762;2023-11-21T04:19:20;16.83;;;5.20;;
8556;SDS011;4316;53.840;10.762;2023-11-21T04:21:45;7.43;;;4.70;;
8556;SDS011;4316;53.840;10.762;2023-11-21T04:24:11;6.20;;;5.10;;
8556;SDS011;4316;53.840;10.762;2023-11-21T04:26:37;6.27;;;5.47;;
8556;SDS011;4316;53.840;10.762;2023-11-21T04:29:02;6.17;;;4.70;;
8556;SDS011;4316;53.840;10.762;2023-11-21T04:31:29;7.57;;;5.43;;
8556;SDS011;4316;53.840;10.762;2023-11-21T04:33:55;6.40;;;4.60;;
8556;SDS011;4316;53.840;10.762;2023-11-21T04:36:20;6.20;;;5.53;;
8556;SDS011;4316;53.840;10.762;2023-11-21T04:38:46;10.87;;;4.90;;
8556;SDS011;4316;53.840;10.762;2023-11-21T04:41:11;6.37;;;5.07;;
8556;SDS011;4316;53.840;10.762;2023-11-21T04:43:37;9.60;;;5.00;;
8556;SDS011;4316;53.840;10.762;2023-11-21T04:46:03;8.20;;;4.80;;
8556;SDS011;4316;53.840;10.762;2023-11-21T04:48:29;5.73;;;4.80;;
8556;SDS011;4316;53.840;10.762;2023-11-21T04:50:54;4.77;;;4.37;;
8556;SDS011;4316;53.840;10.762;2023-11-21T04:53:20;7.50;;;4.53;;
8556;SDS011;4316;53.840;10.762;2023-11-21T04:55:45;5.20;;;4.30;;
8556;SDS011;4316;53.840;10.762;2023-11-21T04:58:11;4.23;;;3.83;;
8556;SDS011;4316;53.840;10.762;2023-11-21T05:00:37;5.53;;;4.43;;
8556;SDS011;4316;53.840;10.762;2023-11-21T05:03:03;8.83;;;4.60;;
8556;SDS011;4316;53.840;10.762;2023-11-21T05:05:30;7.67;;;4.07;;
8556;SDS011;4316;53.840;10.762;2023-11-21T05:07:55;4.83;;;4.30;;
8556;SDS011;4316;53.840;10.762;2023-11-21T05:10:21;4.23;;;3.83;;
8556;SDS011;4316;53.840;10.762;2023-11-21T05:12:47;4.80;;;4.20;;
8556;SDS011;4316;53.840;10.762;2023-11-21T05:15:15;4.20;;;3.80;;
8556;SDS011;4316;53.840;10.762;2023-11-21T05:17:42;5.27;;;3.80;;
8556;SDS011;4316;53.840;10.762;2023-11-21T05:20:09;6.70;;;4.17;;
8556;SDS011;4316;53.840;10.762;2023-11-21T05:22:36;3.80;;;3.50;;
8556;SDS011;4316;53.840;10.762;2023-11-21T05:25:02;5.13;;;4.00;;
8556;SDS011;4316;53.840;10.762;2023-11-21T05:27:29;5.10;;;4.00;;
8556;SDS011;4316;53.840;10.762;2023-11-21T05:29:56;3.53;;;3.23;;
8556;SDS011;4316;53.840;10.762;2023-11-21T05:32:22;3.93;;;3.10;;
8556;SDS011;4316;53.840;10.762;2023-11-21T05:34:49;4.63;;;3.30;;
8556;SDS011;4316;53.840;10.762;2023-11-21T05:37:15;4.27;;;3.23;;
8556;SDS011;4316;53.840;10.762;2023-11-21T05:39:40;6.43;;;3.90;;
8556;SDS011;4316;53.840;10.762;2023-11-21T05:42:06;3.23;;;2.93;;
8556;SDS011;4316;53.840;10.762;2023-11-21T05:44:31;4.40;;;3.87;;
8556;SDS011;4316;53.840;10.762;2023-11-21T05:46:57;3.57;;;3.27;;
8556;SDS011;4316;53.840;10.762;2023-11-21T05:49:24;6.90;;;3.83;;
8556;SDS011;4316;53.840;10.762;2023-11-21T05:51:52;3.60;;;3.17;;
8556;SDS011;4316;53.840;10.762;2023-11-21T05:54:19;4.10;;;2.93;;
8556;SDS011;4316;53.840;10.762;2023-11-21T05:56:44;3.53;;;3.20;;
8556;SDS011;4316;53.840;10.762;2023-11-21T05:59:10;3.93;;;3.13;;
8556;SDS011;4316;53.840;10.762;2023-11-21T06:01:36;3.60;;;3.30;;
8556;SDS011;4316;53.840;10.762;2023-11-21T06:04:04;3.87;;;3.10;;
8556;SDS011;4316;53.840;10.762;2023-11-21T06:06:30;3.53;;;3.23;;
8556;SDS011;4316;53.840;10.762;2023-11-21T06:08:56;3.67;;;3.30;;
8556;SDS011;4316;53.840;10.762;2023-11-21T06:11:22;3.37;;;3.07;;
8556;SDS011;4316;53.840;10.762;2023-11-21T06:13:47;3.40;;;3.13;;
8556;SDS011;4316;53.840;10.762;2023-11-21T06:16:14;5.70;;;3.10;;
8556;SDS011;4316;53.840;10.762;2023-11-21T06:18:42;4.73;;;3.03;;
8556;SDS011;4316;53.840;10.762;2023-11-21T06:21:11;3.63;;;2.80;;
8556;SDS011;4316;53.840;10.762;2023-11-21T06:23:38;3.07;;;2.77;;
8556;SDS011;4316;53.840;10.762;2023-11-21T06:26:04;4.53;;;3.10;;
8556;SDS011;4316;53.840;10.762;2023-11-21T06:28:30;3.43;;;2.63;;
8556;SDS011;4316;53.840;10.762;2023-11-21T06:30:56;3.67;;;3.07;;
8556;SDS011;4316;53.840;10.762;2023-11-21T06:33:30;6.13;;;2.73;;
8556;SDS011;4316;53.840;10.762;2023-11-21T06:35:59;4.63;;;2.50;;
8556;SDS011;4316;53.840;10.762;2023-11-21T06:38:28;3.23;;;2.80;;
8556;SDS011;4316;53.840;10.762;2023-11-21T06:40:55;3.93;;;2.70;;
8556;SDS011;4316;53.840;10.762;2023-11-21T06:43:22;6.43;;;3.27;;
8556;SDS011;4316;53.840;10.762;2023-11-21T06:45:47;3.37;;;3.00;;
8556;SDS011;4316;53.840;10.762;2023-11-21T06:48:13;3.93;;;3.40;;
8556;SDS011;4316;53.840;10.762;2023-11-21T06:50:40;5.27;;;3.07;;
8556;SDS011;4316;53.840;10.762;2023-11-21T06:53:06;13.47;;;3.53;;
8556;SDS011;4316;53.840;10.762;2023-11-21T06:55:33;4.93;;;3.63;;
8556;SDS011;4316;53.840;10.762;2023-11-21T06:57:58;6.03;;;3.63;;
8556;SDS011;4316;53.840;10.762;2023-11-21T07:00:25;7.80;;;4.33;;
8556;SDS011;4316;53.840;10.762;2023-11-21T07:02:53;7.03;;;4.30;;
8556;SDS011;4316;53.840;10.762;2023-11-21T07:05:20;5.33;;;4.10;;
8556;SDS011;4316;53.840;10.762;2023-11-21T07:07:46;5.20;;;4.00;;
8556;SDS011;4316;53.840;10.762;2023-11-21T07:10:13;6.60;;;4.43;;
8556;SDS011;4316;53.840;10.762;2023-11-21T07:12:39;4.30;;;3.30;;
8556;SDS011;4316;53.840;10.762;2023-11-21T07:15:06;7.03;;;3.23;;
8556;SDS011;4316;53.840;10.762;2023-11-21T07:17:34;6.03;;;3.23;;
8556;SDS011;4316;53.840;10.762;2023-11-21T07:20:01;11.67;;;3.23;;
8556;SDS011;4316;53.840;10.762;2023-11-21T07:22:28;3.73;;;2.97;;
8556;SDS011;4316;53.840;10.762;2023-11-21T07:24:53;3.47;;;2.40;;
8556;SDS011;4316;53.840;10.762;2023-11-21T07:27:22;4.87;;;2.90;;
8556;SDS011;4316;53.840;10.762;2023-11-21T07:29:47;2.70;;;2.50;;
8556;SDS011;4316;53.840;10.762;2023-11-21T07:32:13;2.47;;;2.20;;
8556;SDS011;4316;53.840;10.762;2023-11-21T07:34:39;2.73;;;2.00;;
8556;SDS011;4316;53.840;10.762;2023-11-21T07:37:06;1.87;;;1.77;;
8556;SDS011;4316;53.840;10.762;2023-11-21T07:39:32;2.83;;;1.93;;
8556;SDS011;4316;53.840;10.762;2023-11-21T07:41:57;2.10;;;1.90;;
8556;SDS011;4316;53.840;10.762;2023-11-21T07:44:23;6.10;;;2.40;;
8556;SDS011;4316;53.840;10.762;2023-11-21T07:46:49;2.63;;;1.77;;
8556;SDS011;4316;53.840;10.762;2023-11-21T07:49:14;3.33;;;2.10;;
8556;SDS011;4316;53.840;10.762;2023-11-21T07:51:42;2.33;;;2.17;;
8556;SDS011;4316;53.840;10.762;2023-11-21T07:54:08;2.73;;;2.50;;
8556;SDS011;4316;53.840;10.762;2023-11-21T07:56:35;5.33;;;2.60;;
8556;SDS011;4316;53.840;10.762;2023-11-21T07:59:00;3.93;;;3.10;;
8556;SDS011;4316;53.840;10.762;2023-11-21T08:01:26;3.20;;;2.50;;
8556;SDS011;4316;53.840;10.762;2023-11-21T08:03:53;2.93;;;2.60;;
8556;SDS011;4316;53.840;10.762;2023-11-21T08:06:22;2.50;;;2.30;;
8556;SDS011;4316;53.840;10.762;2023-11-21T08:08:49;3.30;;;2.70;;
8556;SDS011;4316;53.840;10.762;2023-11-21T08:11:14;2.33;;;2.20;;
8556;SDS011;4316;53.840;10.762;2023-11-21T08:13:40;3.03;;;2.40;;
8556;SDS011;4316;53.840;10.762;2023-11-21T08:16:06;4.73;;;2.60;;
8556;SDS011;4316;53.840;10.762;2023-11-21T08:18:32;3.03;;;2.50;;
8556;SDS011;4316;53.840;10.762;2023-11-21T08:20:59;5.83;;;2.93;;
8556;SDS011;4316;53.840;10.762;2023-11-21T08:23:25;2.57;;;2.37;;
8556;SDS011;4316;53.840;10.762;2023-11-21T08:25:54;2.80;;;2.40;;
8556;SDS011;4316;53.840;10.762;2023-11-21T08:28:20;5.00;;;2.27;;
8556;SDS011;4316;53.840;10.762;2023-11-21T08:30:50;4.10;;;2.40;;
8556;SDS011;4316;53.840;10.762;2023-11-21T08:33:19;3.93;;;2.13;;
8556;SDS011;4316;53.840;10.762;2023-11-21T08:35:45;4.73;;;2.10;;
8556;SDS011;4316;53.840;10.762;2023-11-21T08:38:11;2.50;;;2.30;;
8556;SDS011;4316;53.840;10.762;2023-11-21T08:40:37;3.13;;;2.20;;
8556;SDS011;4316;53.840;10.762;2023-11-21T08:43:03;2.80;;;2.40;;
8556;SDS011;4316;53.840;10.762;2023-11-21T08:45:32;2.47;;;2.27;;
8556;SDS011;4316;53.840;10.762;2023-11-21T08:47:59;5.67;;;2.37;;
8556;SDS011;4316;53.840;10.762;2023-11-21T08:50:25;2.47;;;2.30;;
8556;SDS011;4316;53.840;10.762;2023-11-21T08:52:51;2.73;;;2.40;;
8556;SDS011;4316;53.840;10.762;2023-11-21T08:55:16;2.23;;;2.03;;
8556;SDS011;4316;53.840;10.762;2023-11-21T08:57:43;2.83;;;2.30;;
8556;SDS011;4316;53.840;10.762;2023-11-21T09:00:10;2.60;;;2.40;;
8556;SDS011;4316;53.840;10.762;2023-11-21T09:02:40;6.17;;;2.40;;
8556;SDS011;4316;53.840;10.762;2023-11-21T09:05:07;3.40;;;2.30;;
8556;SDS011;4316;53.840;10.762;2023-11-21T09:07:34;3.43;;;2.60;;
8556;SDS011;4316;53.840;10.762;2023-11-21T09:10:00;3.80;;;2.87;;
8556;SDS011;4316;53.840;10.762;2023-11-21T09:12:26;2.80;;;2.60;;
8556;SDS011;4316;53.840;10.762;2023-11-21T09:14:52;4.07;;;3.07;;
8556;SDS011;4316;53.840;10.762;2023-11-21T09:17:17;2.47;;;2.27;;
8556;SDS011;4316;53.840;10.762;2023-11-21T09:19:44;3.17;;;2.50;;
8556;SDS011;4316;53.840;10.762;2023-11-21T09:22:12;5.40;;;2.83;;
8556;SDS011;4316;53.840;10.762;2023-11-21T09:24:37;2.50;;;2.37;;
8556;SDS011;4316;53.840;10.762;2023-11-21T09:27:03;2.67;;;2.47;;
8556;SDS011;4316;53.840;10.762;2023-11-21T09:29:30;5.73;;;2.60;;
8556;SDS011;4316;53.840;10.762;2023-11-21T09:31:56;5.33;;;2.43;;
8556;SDS011;4316;53.840;10.762;2023-11-21T09:34:24;5.40;;;2.67;;
8556;SDS011;4316;53.840;10.762;2023-11-21T09:36:50;9.83;;;2.80;;
8556;SDS011;4316;53.840;10.762;2023-11-21T09:39:16;3.37;;;2.60;;
8556;SDS011;4316;53.840;10.762;2023-11-21T09:44:17;4.07;;;2.67;;
8556;SDS011;4316;53.840;10.762;2023-11-21T09:46:45;4.10;;;2.80;;
8556;SDS011;4316;53.840;10.762;2023-11-21T09:49:14;4.23;;;3.77;;
8556;SDS011;4316;53.840;10.762;2023-11-21T09:51:44;6.93;;;3.13;;
8556;SDS011;4316;53.840;10.762;2023-11-21T09:54:11;8.43;;;3.60;;
8556;SDS011;4316;53.840;10.762;2023-11-21T09:56:40;3.27;;;2.87;;
8556;SDS011;4316;53.840;10.762;2023-11-21T09:59:06;8.00;;;3.80;;
8556;SDS011;4316;53.840;10.762;2023-11-21T10:01:35;5.07;;;3.17;;
8556;SDS011;4316;53.840;10.762;2023-11-21T10:04:02;5.50;;;3.50;;
8556;SDS011;4316;53.840;10.762;2023-11-21T10:06:28;4.40;;;2.70;;
8556;SDS011;4316;53.840;10.762;2023-11-21T10:08:56;3.23;;;2.97;;
8556;SDS011;4316;53.840;10.762;2023-11-21T10:11:24;5.33;;;2.93;;
8556;SDS011;4316;53.840;10.762;2023-11-21T10:13:55;4.93;;;2.97;;
8556;SDS011;4316;53.840;10.762;2023-11-21T10:16:25;4.33;;;3.00;;
8556;SDS011;4316;53.840;10.762;2023-11-21T10:18:52;5.97;;;3.50;;
8556;SDS011;4316;53.840;10.762;2023-11-21T10:21:21;5.87;;;3.53;;
8556;SDS011;4316;53.840;10.762;2023-11-21T10:23:47;5.33;;;3.30;;
8556;SDS011;4316;53.840;10.762;2023-11-21T10:26:13;6.47;;;3.60;;
8556;SDS011;4316;53.840;10.762;2023-11-21T10:28:57;3.73;;;3.20;;
8556;SDS011;4316;53.840;10.762;2023-11-21T10:31:30;4.47;;;3.17;;
8556;SDS011;4316;53.840;10.762;2023-11-21T10:34:11;4.87;;;3.40;;
8556;SDS011;4316;53.840;10.762;2023-11-21T10:36:37;3.83;;;3.50;;
8556;SDS011;4316;53.840;10.762;2023-11-21T10:39:02;6.40;;;3.00;;
8556;SDS011;4316;53.840;10.762;2023-11-21T10:41:28;4.70;;;3.00;;
8556;SDS011;4316;53.840;10.762;2023-11-21T10:43:53;4.33;;;2.97;;
8556;SDS011;4316;53.840;10.762;2023-11-21T10:46:21;4.40;;;3.67;;
8556;SDS011;4316;53.840;10.762;2023-11-21T10:48:52;3.87;;;3.43;;
8556;SDS011;4316;53.840;10.762;2023-11-21T10:51:20;4.43;;;3.13;;
8556;SDS011;4316;53.840;10.762;2023-11-21T10:53:45;6.37;;;3.10;;
8556;SDS011;4316;53.840;10.762;2023-11-21T10:56:12;3.93;;;3.30;;
8556;SDS011;4316;53.840;10.762;2023-11-21T10:58:50;4.10;;;2.83;;
8556;SDS011;4316;53.840;10.762;2023-11-21T11:01:17;3.20;;;2.90;;
8556;SDS011;4316;53.840;10.762;2023-11-21T11:03:46;4.43;;;3.03;;
8556;SDS011;4316;53.840;10.762;2023-11-21T11:06:12;3.10;;;2.77;;
8556;SDS011;4316;53.840;10.762;2023-11-21T11:08:40;4.20;;;2.50;;
8556;SDS011;4316;53.840;10.762;2023-11-21T11:11:06;7.17;;;2.70;;
8556;SDS011;4316;53.840;10.762;2023-11-21T11:13:32;6.40;;;3.10;;
8556;SDS011;4316;53.840;10.762;2023-11-21T11:15:58;7.53;;;3.17;;
8556;SDS011;4316;53.840;10.762;2023-11-21T11:18:29;4.50;;;3.03;;
8556;SDS011;4316;53.840;10.762;2023-11-21T11:20:56;5.67;;;3.23;;
8556;SDS011;4316;53.840;10.762;2023-11-21T11:23:37;6.77;;;3.23;;
8556;SDS011;4316;53.840;10.762;2023-11-21T11:26:36;6.37;;;3.00;;
8556;SDS011;4316;53.840;10.762;2023-11-21T11:35:01;4.57;;;3.17;;
8556;SDS011;4316;53.840;10.762;2023-11-21T11:37:27;3.60;;;2.93;;
8556;SDS011;4316;53.840;10.762;2023-11-21T11:39:53;3.33;;;3.03;;
8556;SDS011;4316;53.840;10.762;2023-11-21T11:42:19;4.17;;;2.70;;
8556;SDS011;4316;53.840;10.762;2023-11-21T11:44:48;6.83;;;3.43;;
8556;SDS011;4316;53.840;10.762;2023-11-21T11:47:17;4.23;;;2.90;;
8556;SDS011;4316;53.840;10.762;2023-11-21T11:54:59;3.07;;;2.77;;
8556;SDS011;4316;53.840;10.762;2023-11-21T11:57:25;3.80;;;3.00;;
8556;SDS011;4316;53.840;10.762;2023-11-21T12:00:10;4.33;;;2.90;;
8556;SDS011;4316;53.840;10.762;2023-11-21T12:02:57;2.57;;;2.33;;
8556;SDS011;4316;53.840;10.762;2023-11-21T12:05:28;5.43;;;2.63;;
8556;SDS011;4316;53.840;10.762;2023-11-21T12:07:57;4.43;;;2.67;;
8556;SDS011;4316;53.840;10.762;2023-11-21T12:10:29;6.90;;;2.40;;
8556;SDS011;4316;53.840;10.762;2023-11-21T12:12:59;2.37;;;2.27;;
8556;SDS011;4316;53.840;10.762;2023-11-21T12:15:32;4.03;;;3.03;;
8556;SDS011;4316;53.840;10.762;2023-11-21T12:17:58;3.57;;;2.53;;
8556;SDS011;4316;53.840;10.762;2023-11-21T12:20:24;2.43;;;2.27;;
8556;SDS011;4316;53.840;10.762;2023-11-21T12:22:55;4.30;;;2.33;;
8556;SDS011;4316;53.840;10.762;2023-11-21T12:25:22;6.23;;;2.30;;
8556;SDS011;4316;53.840;10.762;2023-11-21T12:27:50;2.33;;;2.10;;
8556;SDS011;4316;53.840;10.762;2023-11-21T12:30:26;2.43;;;2.27;;
8556;SDS011;4316;53.840;10.762;2023-11-21T12:32:55;2.33;;;2.07;;
8556;SDS011;4316;53.840;10.762;2023-11-21T12:35:23;4.50;;;2.43;;
8556;SDS011;4316;53.840;10.762;2023-11-21T12:37:51;4.10;;;2.60;;
8556;SDS011;4316;53.840;10.762;2023-11-21T12:40:17;3.20;;;2.07;;
8556;SDS011;4316;53.840;10.762;2023-11-21T12:42:47;1.97;;;1.87;;
8556;SDS011;4316;53.840;10.762;2023-11-21T12:47:46;4.17;;;2.37;;
8556;SDS011;4316;53.840;10.762;2023-11-21T12:50:14;2.57;;;2.37;;
8556;SDS011;4316;53.840;10.762;2023-11-21T12:52:44;5.33;;;2.50;;
8556;SDS011;4316;53.840;10.762;2023-11-21T12:55:13;3.33;;;2.70;;
8556;SDS011;4316;53.840;10.762;2023-11-21T12:57:44;3.50;;;2.83;;
8556;SDS011;4316;53.840;10.762;2023-11-21T13:00:10;5.30;;;3.57;;
8556;SDS011;4316;53.840;10.762;2023-11-21T13:02:42;4.03;;;2.77;;
8556;SDS011;4316;53.840;10.762;2023-11-21T13:05:08;4.33;;;3.00;;
8556;SDS011;4316;53.840;10.762;2023-11-21T13:07:46;6.93;;;2.30;;
8556;SDS011;4316;53.840;10.762;2023-11-21T13:10:14;1.97;;;1.83;;
8556;SDS011;4316;53.840;10.762;2023-11-21T13:12:44;7.00;;;2.33;;
8556;SDS011;4316;53.840;10.762;2023-11-21T13:15:14;2.27;;;2.13;;
8556;SDS011;4316;53.840;10.762;2023-11-21T13:17:43;7.30;;;2.43;;
8556;SDS011;4316;53.840;10.762;2023-11-21T13:20:10;2.40;;;1.90;;
8556;SDS011;4316;53.840;10.762;2023-11-21T13:22:44;5.37;;;2.43;;
8556;SDS011;4316;53.840;10.762;2023-11-21T13:25:11;4.00;;;2.50;;
8556;SDS011;4316;53.840;10.762;2023-11-21T13:27:39;4.77;;;3.77;;
8556;SDS011;4316;53.840;10.762;2023-11-21T13:30:05;2.40;;;2.10;;
8556;SDS011;4316;53.840;10.762;2023-11-21T13:32:33;1.83;;;1.67;;
8556;SDS011;4316;53.840;10.762;2023-11-21T13:34:58;2.13;;;1.93;;
8556;SDS011;4316;53.840;10.762;2023-11-21T13:37:24;2.47;;;1.97;;
8556;SDS011;4316;53.840;10.762;2023-11-21T13:39:53;3.50;;;2.20;;
8556;SDS011;4316;53.840;10.762;2023-11-21T13:42:19;2.07;;;1.97;;
8556;SDS011;4316;53.840;10.762;2023-11-21T13:44:48;2.77;;;2.40;;
8556;SDS011;4316;53.840;10.762;2023-11-21T13:47:16;2.43;;;2.00;;
8556;SDS011;4316;53.840;10.762;2023-11-21T13:49:42;3.10;;;2.20;;
8556;SDS011;4316;53.840;10.762;2023-11-21T13:52:07;4.40;;;3.00;;
8556;SDS011;4316;53.840;10.762;2023-11-21T13:54:36;5.03;;;3.43;;
8556;SDS011;4316;53.840;10.762;2023-11-21T13:57:01;7.90;;;3.20;;
8556;SDS011;4316;53.840;10.762;2023-11-21T13:59:28;2.40;;;1.60;;
8556;SDS011;4316;53.840;10.762;2023-11-21T14:01:55;2.57;;;1.77;;
8556;SDS011;4316;53.840;10.762;2023-11-21T14:04:26;2.10;;;1.47;;
8556;SDS011;4316;53.840;10.762;2023-11-21T14:06:55;2.10;;;1.60;;
8556;SDS011;4316;53.840;10.762;2023-11-21T14:09:21;4.20;;;1.60;;
8556;SDS011;4316;53.840;10.762;2023-11-21T14:11:50;2.60;;;1.77;;
8556;SDS011;4316;53.840;10.762;2023-11-21T14:14:22;1.53;;;1.43;;
8556;SDS011;4316;53.840;10.762;2023-11-21T14:16:50;3.07;;;1.70;;
8556;SDS011;4316;53.840;10.762;2023-11-21T14:19:16;1.57;;;1.57;;
8556;SDS011;4316;53.840;10.762;2023-11-21T14:21:46;1.40;;;1.30;;
8556;SDS011;4316;53.840;10.762;2023-11-21T14:24:13;5.73;;;2.40;;
8556;SDS011;4316;53.840;10.762;2023-11-21T14:26:44;2.90;;;1.90;;
8556;SDS011;4316;53.840;10.762;2023-11-21T14:29:11;1.60;;;1.50;;
8556;SDS011;4316;53.840;10.762;2023-11-21T14:31:39;1.67;;;1.53;;
8556;SDS011;4316;53.840;10.762;2023-11-21T14:34:06;2.93;;;1.53;;
8556;SDS011;4316;53.840;10.762;2023-11-21T14:36:32;2.67;;;1.70;;
8556;SDS011;4316;53.840;10.762;2023-11-21T14:39:08;1.97;;;1.70;;
8556;SDS011;4316;53.840;10.762;2023-11-21T14:41:45;2.60;;;1.50;;
8556;SDS011;4316;53.840;10.762;2023-11-21T14:44:11;1.50;;;1.47;;
8556;SDS011;4316;53.840;10.762;2023-11-21T14:46:37;1.67;;;1.57;;
8556;SDS011;4316;53.840;10.762;2023-11-21T14:49:04;2.00;;;1.90;;
8556;SDS011;4316;53.840;10.762;2023-11-21T14:51:44;4.87;;;2.13;;
8556;SDS011;4316;53.840;10.762;2023-11-21T14:54:19;2.83;;;2.17;;
8556;SDS011;4316;53.840;10.762;2023-11-21T14:57:00;4.57;;;2.60;;
8556;SDS011;4316;53.840;10.762;2023-11-21T14:59:25;2.17;;;2.03;;
8556;SDS011;4316;53.840;10.762;2023-11-21T15:01:52;4.97;;;2.20;;
8556;SDS011;4316;53.840;10.762;2023-11-21T15:04:21;2.13;;;2.03;;
8556;SDS011;4316;53.840;10.762;2023-11-21T15:07:01;4.30;;;1.87;;
8556;SDS011;4316;53.840;10.762;2023-11-21T15:09:28;5.13;;;1.70;;
8556;SDS011;4316;53.840;10.762;2023-11-21T15:11:56;1.87;;;1.77;;
8556;SDS011;4316;53.840;10.762;2023-11-21T15:14:34;4.53;;;1.83;;
8556;SDS011;4316;53.840;10.762;2023-11-21T15:17:01;1.90;;;1.80;;